createdAt,value
2023-01-29T00:01:14.957Z,75.12
2023-01-29T00:03:31.925Z,75.24
2023-01-29T00:05:49.282Z,76.60
2023-01-29T00:08:06.217Z,77.47
2023-01-29T00:10:23.612Z,77.25
2023-01-29T00:12:40.790Z,77.77
2023-01-29T00:14:58.072Z,77.04
2023-01-29T00:17:15.535Z,74.94
2023-01-29T00:19:32.725Z,76.29
2023-01-29T00:21:49.849Z,76.29
2023-01-29T00:24:06.966Z,76.07
2023-01-29T00:26:24.036Z,74.99
2023-01-29T00:28:41.107Z,75.11
2023-01-29T00:30:58.295Z,75.12
2023-01-29T00:33:16.470Z,75.04
2023-01-29T00:35:33.786Z,75.18
2023-01-29T00:37:50.725Z,74.86
2023-01-29T00:40:08.070Z,74.43
2023-01-29T00:42:25.261Z,73.90
2023-01-29T00:44:42.287Z,74.69
2023-01-29T00:46:59.285Z,74.73
2023-01-29T00:49:17.169Z,75.59
2023-01-29T00:51:34.346Z,74.96
2023-01-29T00:53:51.625Z,74.50
2023-01-29T00:56:09.695Z,74.54
2023-01-29T00:58:26.861Z,74.82
2023-01-29T01:00:43.839Z,75.14
2023-01-29T01:03:01.202Z,75.42
2023-01-29T01:05:19.277Z,74.29
2023-01-29T01:07:36.440Z,74.04
2023-01-29T01:09:53.785Z,74.74
2023-01-29T01:12:12.229Z,73.94
2023-01-29T01:14:29.377Z,74.84
2023-01-29T01:16:46.358Z,73.50
2023-01-29T01:19:03.312Z,74.58
2023-01-29T01:21:20.699Z,74.35
2023-01-29T01:23:38.096Z,74.18
2023-01-29T01:25:56.514Z,73.68
2023-01-29T01:28:13.493Z,73.55
2023-01-29T01:30:30.997Z,74.12
2023-01-29T01:32:48.137Z,73.65
2023-01-29T01:35:06.207Z,74.07
2023-01-29T01:37:23.207Z,75.27
2023-01-29T01:39:41.237Z,76.26
2023-01-29T01:41:58.291Z,76.56
2023-01-29T01:44:16.603Z,75.85
2023-01-29T01:46:33.709Z,75.55
2023-01-29T01:48:50.724Z,76.67
2023-01-29T01:51:11.002Z,75.46
2023-01-29T01:53:28.232Z,76.87
2023-01-29T01:55:47.724Z,76.88
2023-01-29T01:58:04.876Z,76.96
2023-01-29T02:00:23.007Z,76.25
2023-01-29T02:02:40.199Z,75.26
2023-01-29T02:04:57.465Z,74.74
2023-01-29T02:07:14.533Z,74.67
2023-01-29T02:09:31.467Z,74.22
2023-01-29T02:11:49.445Z,74.34
2023-01-29T02:14:06.444Z,75.04
2023-01-29T02:16:24.179Z,76.45
2023-01-29T02:18:41.792Z,77.06
2023-01-29T02:20:58.916Z,75.98
2023-01-29T02:23:15.952Z,75.64
2023-01-29T02:25:34.056Z,76.06
2023-01-29T02:27:51.082Z,76.29
2023-01-29T02:30:08.159Z,76.86
2023-01-29T02:32:26.206Z,77.63
2023-01-29T02:34:43.315Z,76.45
2023-01-29T02:37:00.678Z,76.43
2023-01-29T02:39:17.727Z,77.65
2023-01-29T02:41:34.818Z,75.97
2023-01-29T02:43:51.775Z,76.82
2023-01-29T02:46:08.914Z,76.81
2023-01-29T02:48:26.976Z,78.32
2023-01-29T02:50:44.307Z,76.45
2023-01-29T02:53:01.696Z,76.27
2023-01-29T02:55:19.041Z,76.61
2023-01-29T02:57:36.011Z,75.20
2023-01-29T02:59:53.250Z,75.58
2023-01-29T03:02:11.719Z,75.82
2023-01-29T03:04:28.902Z,74.29
2023-01-29T03:06:46.048Z,75.30
2023-01-29T03:09:03.474Z,75.14
2023-01-29T03:11:23.866Z,76.00
2023-01-29T03:13:41.015Z,74.40
2023-01-29T03:15:58.137Z,75.20
2023-01-29T03:18:16.372Z,75.93
2023-01-29T03:20:33.450Z,76.05
2023-01-29T03:22:52.208Z,76.16
2023-01-29T03:25:09.384Z,74.28
2023-01-29T03:27:26.351Z,73.70
2023-01-29T03:29:43.361Z,73.75
2023-01-29T03:32:00.642Z,74.07
2023-01-29T03:34:17.574Z,75.72
2023-01-29T03:36:34.815Z,75.76
2023-01-29T03:38:51.874Z,76.27
2023-01-29T03:41:08.968Z,78.27
2023-01-29T03:43:26.277Z,77.30
2023-01-29T03:45:43.763Z,76.81
2023-01-29T03:48:02.037Z,77.10
2023-01-29T03:50:19.426Z,77.02
2023-01-29T03:52:36.499Z,76.71
2023-01-29T03:54:53.495Z,77.37
2023-01-29T03:57:10.533Z,77.18
2023-01-29T03:59:27.872Z,78.08
2023-01-29T04:01:44.983Z,77.84
2023-01-29T04:04:02.292Z,78.96
2023-01-29T04:06:20.610Z,79.71
2023-01-29T04:08:38.672Z,79.28
2023-01-29T04:10:56.736Z,78.77
2023-01-29T04:13:14.041Z,78.43
2023-01-29T04:15:30.948Z,78.45
2023-01-29T04:17:48.231Z,77.93
2023-01-29T04:20:05.211Z,78.32
2023-01-29T04:22:22.209Z,78.93
2023-01-29T04:24:39.190Z,79.56
2023-01-29T04:26:56.401Z,78.78
2023-01-29T04:29:13.490Z,79.28
2023-01-29T04:31:30.956Z,79.07
2023-01-29T04:33:49.086Z,78.22
2023-01-29T04:36:07.151Z,77.28
2023-01-29T04:38:24.506Z,77.15
2023-01-29T04:40:41.554Z,77.20
2023-01-29T04:42:58.554Z,77.42
2023-01-29T04:45:15.580Z,76.49
2023-01-29T04:47:32.729Z,76.05
2023-01-29T04:49:49.776Z,76.71
2023-01-29T04:52:06.823Z,77.18
2023-01-29T04:54:23.847Z,76.88
2023-01-29T04:56:40.920Z,77.14
2023-01-29T04:58:57.977Z,77.40
2023-01-29T05:01:15.262Z,78.40
2023-01-29T05:03:32.555Z,78.12
2023-01-29T05:05:50.649Z,78.63
2023-01-29T05:08:07.960Z,77.63
2023-01-29T05:10:25.043Z,78.50
2023-01-29T05:12:42.141Z,79.21
2023-01-29T05:14:59.428Z,77.71
2023-01-29T05:17:18.005Z,77.89
2023-01-29T05:19:34.941Z,77.90
2023-01-29T05:21:53.298Z,79.18
2023-01-29T05:24:10.690Z,78.34
2023-01-29T05:26:29.055Z,78.44
2023-01-29T05:28:46.166Z,79.32
2023-01-29T05:31:03.634Z,78.74
2023-01-29T05:33:21.132Z,78.67
2023-01-29T05:35:38.229Z,77.65
2023-01-29T05:37:55.551Z,78.20
2023-01-29T05:40:13.612Z,76.49
2023-01-29T05:42:30.950Z,76.53
2023-01-29T05:44:48.281Z,78.06
2023-01-29T05:47:06.407Z,77.82
2023-01-29T05:49:23.399Z,77.68
2023-01-29T05:51:40.360Z,77.22
2023-01-29T05:53:58.637Z,77.85
2023-01-29T05:56:16.912Z,79.14
2023-01-29T05:58:34.067Z,78.74
2023-01-29T06:00:51.429Z,78.05
2023-01-29T06:03:09.866Z,79.65
2023-01-29T06:05:27.991Z,80.55
2023-01-29T06:07:45.034Z,81.00
2023-01-29T06:10:02.327Z,80.26
2023-01-29T06:12:19.290Z,80.02
2023-01-29T06:14:37.593Z,78.15
2023-01-29T06:16:56.798Z,78.13
2023-01-29T06:19:13.989Z,77.62
2023-01-29T06:21:31.801Z,77.91
2023-01-29T06:23:48.907Z,77.86
2023-01-29T06:26:06.712Z,78.75
2023-01-29T06:28:23.790Z,78.65
2023-01-29T06:30:41.095Z,79.19
2023-01-29T06:32:58.173Z,78.91
2023-01-29T06:35:15.286Z,78.91
2023-01-29T06:37:32.677Z,79.47
2023-01-29T06:39:49.663Z,79.58
2023-01-29T06:42:06.945Z,80.52
2023-01-29T06:44:23.985Z,79.01
2023-01-29T06:46:41.209Z,80.15
2023-01-29T06:48:58.533Z,80.67
2023-01-29T06:51:15.606Z,79.17
2023-01-29T06:53:32.588Z,79.04
2023-01-29T06:55:50.479Z,78.58
2023-01-29T06:58:07.485Z,78.81
2023-01-29T07:00:24.525Z,79.70
2023-01-29T07:02:41.576Z,79.56
2023-01-29T07:04:58.912Z,78.74
2023-01-29T07:07:16.249Z,79.39
2023-01-29T07:09:33.545Z,79.34
2023-01-29T07:11:50.606Z,77.68
2023-01-29T07:14:07.665Z,77.55
2023-01-29T07:16:25.922Z,77.21
2023-01-29T07:18:43.028Z,77.89
2023-01-29T07:21:00.038Z,79.88
2023-01-29T07:23:17.083Z,78.14
2023-01-29T07:25:33.995Z,78.84
2023-01-29T07:27:51.068Z,79.07
2023-01-29T07:30:08.298Z,79.03
2023-01-29T07:32:25.355Z,78.73
2023-01-29T07:34:42.242Z,79.10
2023-01-29T07:36:59.313Z,79.68
2023-01-29T07:39:16.363Z,78.87
2023-01-29T07:41:33.390Z,78.37
2023-01-29T07:43:50.414Z,79.44
2023-01-29T07:46:07.494Z,79.79
2023-01-29T07:48:25.510Z,78.11
2023-01-29T07:50:42.790Z,78.48
2023-01-29T07:52:59.826Z,78.30
2023-01-29T07:55:16.899Z,77.22
2023-01-29T07:57:33.908Z,77.86
2023-01-29T07:59:50.998Z,79.07
2023-01-29T08:02:08.041Z,78.39
2023-01-29T08:04:25.433Z,78.50
2023-01-29T08:06:42.467Z,76.99
2023-01-29T08:08:59.768Z,77.04
2023-01-29T08:11:16.737Z,77.14
2023-01-29T08:13:34.576Z,76.26
2023-01-29T08:15:51.850Z,76.07
2023-01-29T08:18:08.933Z,76.41
2023-01-29T08:20:26.897Z,76.18
2023-01-29T08:22:44.163Z,76.09
2023-01-29T08:25:08.257Z,76.23
2023-01-29T08:27:25.540Z,76.64
2023-01-29T08:29:42.808Z,76.76
2023-01-29T08:31:59.902Z,76.41
2023-01-29T08:34:16.976Z,76.86
2023-01-29T08:36:35.012Z,76.70
2023-01-29T08:38:52.259Z,76.29
2023-01-29T08:41:09.215Z,76.09
2023-01-29T08:43:26.217Z,75.91
2023-01-29T08:45:43.316Z,75.35
2023-01-29T08:48:01.620Z,75.28
2023-01-29T08:50:18.851Z,75.94
2023-01-29T08:52:36.122Z,75.31
2023-01-29T08:54:53.405Z,75.09
2023-01-29T08:57:11.644Z,74.66
2023-01-29T08:59:28.668Z,74.07
2023-01-29T09:01:45.645Z,73.15
2023-01-29T09:04:02.873Z,72.68
2023-01-29T09:06:19.874Z,74.11
2023-01-29T09:08:37.843Z,72.69
2023-01-29T09:10:54.770Z,72.27
2023-01-29T09:13:11.713Z,71.93
2023-01-29T09:15:28.746Z,72.14
2023-01-29T09:17:45.782Z,72.37
2023-01-29T09:20:03.105Z,72.18
2023-01-29T09:22:20.445Z,72.19
2023-01-29T09:24:37.330Z,72.68
2023-01-29T09:26:54.290Z,72.84
2023-01-29T09:29:12.533Z,72.37
2023-01-29T09:31:29.950Z,72.19
2023-01-29T09:33:47.004Z,72.17
2023-01-29T09:36:04.095Z,72.64
2023-01-29T09:38:21.117Z,72.62
2023-01-29T09:40:38.159Z,71.93
2023-01-29T09:42:55.176Z,72.60
2023-01-29T09:45:18.277Z,72.86
2023-01-29T09:47:36.536Z,72.64
2023-01-29T09:49:53.586Z,73.44
2023-01-29T09:52:10.664Z,73.26
2023-01-29T09:54:27.977Z,73.20
2023-01-29T09:56:45.016Z,72.68
2023-01-29T09:59:02.174Z,72.27
2023-01-29T10:01:19.290Z,72.45
2023-01-29T10:03:36.750Z,72.69
2023-01-29T10:05:53.864Z,72.50
2023-01-29T10:08:11.000Z,73.18
2023-01-29T10:10:28.033Z,72.61
2023-01-29T10:12:45.010Z,71.81
2023-01-29T10:15:02.019Z,71.55
2023-01-29T10:17:19.492Z,71.60
2023-01-29T10:19:36.600Z,71.81
2023-01-29T10:21:53.985Z,71.01
2023-01-29T10:24:12.364Z,70.94
2023-01-29T10:26:29.769Z,71.84
2023-01-29T10:28:48.192Z,71.05
2023-01-29T10:31:05.346Z,72.07
2023-01-29T10:33:22.700Z,71.46
2023-01-29T10:35:40.619Z,71.45
2023-01-29T10:37:57.650Z,71.76
2023-01-29T10:40:14.721Z,71.50
2023-01-29T10:42:31.700Z,71.19
2023-01-29T10:44:48.929Z,70.48
2023-01-29T10:47:05.994Z,70.04
2023-01-29T10:49:23.027Z,69.76
2023-01-29T10:51:41.026Z,69.18
2023-01-29T10:53:58.388Z,68.55
2023-01-29T10:56:22.788Z,69.23
2023-01-29T10:58:40.468Z,69.50
2023-01-29T11:00:57.555Z,69.57
2023-01-29T11:03:26.456Z,69.02
2023-01-29T11:05:45.104Z,69.10
2023-01-29T11:08:03.122Z,68.40
2023-01-29T11:10:20.422Z,69.10
2023-01-29T11:12:37.353Z,68.66
2023-01-29T11:14:54.281Z,67.16
2023-01-29T11:17:11.223Z,67.50
2023-01-29T11:19:28.548Z,67.58
2023-01-29T11:21:45.686Z,66.84
2023-01-29T11:24:02.720Z,67.17
2023-01-29T11:26:20.059Z,66.54
2023-01-29T11:28:37.089Z,67.22
2023-01-29T11:30:55.124Z,68.03
2023-01-29T11:33:12.103Z,68.13
2023-01-29T11:35:29.107Z,67.60
2023-01-29T11:37:46.376Z,67.64
2023-01-29T11:40:03.754Z,67.65
2023-01-29T11:42:20.816Z,68.25
2023-01-29T11:44:37.746Z,67.69
2023-01-29T11:46:54.828Z,67.46
2023-01-29T11:49:20.586Z,68.00
2023-01-29T11:51:37.717Z,67.11
2023-01-29T11:53:54.872Z,67.86
2023-01-29T11:56:12.029Z,68.04
2023-01-29T11:58:29.105Z,67.74
2023-01-29T12:00:49.029Z,67.99
2023-01-29T12:03:06.022Z,66.13
2023-01-29T12:05:24.247Z,66.54
2023-01-29T12:07:41.467Z,64.85
2023-01-29T12:09:58.538Z,64.97
2023-01-29T12:12:16.079Z,64.91
2023-01-29T12:14:33.210Z,63.79
2023-01-29T12:16:50.196Z,63.84
2023-01-29T12:19:08.161Z,66.00
2023-01-29T12:21:25.118Z,64.38
2023-01-29T12:23:42.126Z,64.07
2023-01-29T12:26:01.107Z,64.67
2023-01-29T12:28:18.029Z,64.04
2023-01-29T12:30:35.114Z,64.51
2023-01-29T12:32:52.219Z,65.92
2023-01-29T12:35:10.639Z,65.34
2023-01-29T12:37:27.656Z,64.32
2023-01-29T12:39:44.711Z,63.65
2023-01-29T12:42:02.095Z,64.29
2023-01-29T12:44:20.182Z,64.50
2023-01-29T12:46:37.210Z,64.01
2023-01-29T12:48:55.489Z,66.24
2023-01-29T12:51:12.483Z,65.95
2023-01-29T12:53:29.659Z,63.72
2023-01-29T12:55:46.625Z,66.00
2023-01-29T12:58:03.501Z,65.63
2023-01-29T13:00:21.105Z,64.40
2023-01-29T13:02:40.502Z,63.73
2023-01-29T13:04:57.582Z,64.35
2023-01-29T13:07:14.534Z,63.40
2023-01-29T13:09:31.982Z,63.47
2023-01-29T13:11:49.111Z,64.40
2023-01-29T13:14:09.651Z,64.78
2023-01-29T13:16:30.003Z,64.04
2023-01-29T13:18:47.023Z,65.11
2023-01-29T13:21:04.481Z,65.38
2023-01-29T13:23:21.515Z,64.35
2023-01-29T13:25:38.929Z,64.99
2023-01-29T13:27:57.290Z,65.62
2023-01-29T13:30:14.468Z,67.00
2023-01-29T13:32:31.528Z,65.93
2023-01-29T13:34:48.565Z,65.50
2023-01-29T13:37:05.703Z,65.38
2023-01-29T13:39:23.061Z,65.40
2023-01-29T13:41:40.096Z,66.38
2023-01-29T13:43:58.825Z,65.85
2023-01-29T13:46:16.852Z,64.90
2023-01-29T13:48:33.841Z,65.58
2023-01-29T13:50:50.794Z,67.07
2023-01-29T13:53:08.017Z,68.26
2023-01-29T13:55:26.301Z,67.77
2023-01-29T13:57:43.668Z,68.11
2023-01-29T14:00:00.746Z,67.11
2023-01-29T14:02:17.986Z,66.17
2023-01-29T14:04:35.029Z,65.79
2023-01-29T14:06:52.855Z,67.33
2023-01-29T14:09:10.895Z,68.42
2023-01-29T14:11:28.199Z,68.79
2023-01-29T14:13:45.377Z,68.92
2023-01-29T14:16:02.624Z,68.40
2023-01-29T14:18:19.665Z,67.63
2023-01-29T14:20:45.919Z,68.52
2023-01-29T14:23:04.290Z,69.69
2023-01-29T14:25:21.351Z,69.59
2023-01-29T14:27:38.594Z,67.97
2023-01-29T14:29:55.512Z,68.50
2023-01-29T14:32:12.511Z,69.34
2023-01-29T14:34:29.569Z,68.49
2023-01-29T14:36:46.798Z,68.01
2023-01-29T14:39:03.851Z,69.20
2023-01-29T14:41:22.076Z,69.42
2023-01-29T14:43:39.120Z,69.51
2023-01-29T14:45:56.107Z,69.39
2023-01-29T14:48:13.372Z,70.59
2023-01-29T14:50:33.011Z,69.99
2023-01-29T14:52:50.357Z,69.83
2023-01-29T14:55:08.380Z,70.04
2023-01-29T14:57:25.735Z,70.18
2023-01-29T14:59:44.139Z,70.24
2023-01-29T15:02:01.206Z,70.25
2023-01-29T15:04:19.235Z,69.90
2023-01-29T15:06:36.548Z,70.53
2023-01-29T15:08:53.561Z,70.49
2023-01-29T15:11:10.576Z,70.70
2023-01-29T15:13:27.870Z,70.49
2023-01-29T15:15:44.815Z,71.49
2023-01-29T15:18:01.842Z,71.43
2023-01-29T15:20:18.777Z,71.81
2023-01-29T15:22:35.727Z,72.12
2023-01-29T15:24:52.747Z,72.63
2023-01-29T15:27:10.020Z,72.42
2023-01-29T15:29:27.126Z,72.08
2023-01-29T15:31:46.312Z,72.87
2023-01-29T15:34:03.996Z,73.17
2023-01-29T15:36:20.999Z,74.67
2023-01-29T15:38:38.201Z,74.58
2023-01-29T15:40:55.452Z,75.61
2023-01-29T15:43:12.460Z,76.08
2023-01-29T15:45:29.498Z,76.09
2023-01-29T15:47:46.585Z,75.99
2023-01-29T15:50:04.588Z,77.27
2023-01-29T15:52:21.673Z,77.31
2023-01-29T15:54:38.620Z,77.44
2023-01-29T15:56:55.666Z,77.63
2023-01-29T15:59:12.682Z,77.91
2023-01-29T16:01:29.696Z,78.09
2023-01-29T16:03:46.660Z,78.19
2023-01-29T16:06:04.000Z,77.91
2023-01-29T16:08:21.013Z,78.35
2023-01-29T16:10:37.938Z,78.25
2023-01-29T16:12:54.933Z,78.04
2023-01-29T16:15:12.216Z,78.86
2023-01-29T16:17:29.240Z,78.81
2023-01-29T16:19:46.242Z,79.62
2023-01-29T16:22:04.477Z,79.08
2023-01-29T16:24:21.424Z,79.26
2023-01-29T16:26:38.709Z,79.79
2023-01-29T16:28:55.765Z,79.72
2023-01-29T16:31:12.847Z,79.35
2023-01-29T16:33:30.251Z,79.22
2023-01-29T16:35:47.212Z,78.97
2023-01-29T16:38:04.331Z,79.37
2023-01-29T16:40:21.384Z,80.04
2023-01-29T16:42:38.636Z,80.01
2023-01-29T16:44:56.818Z,80.10
2023-01-29T16:47:13.885Z,79.77
2023-01-29T16:49:32.241Z,80.44
2023-01-29T16:51:49.331Z,80.83
2023-01-29T16:54:06.260Z,80.20
2023-01-29T16:56:23.582Z,80.10
2023-01-29T16:58:40.565Z,80.56
2023-01-29T17:00:57.922Z,80.67
2023-01-29T17:03:14.935Z,80.40
2023-01-29T17:05:31.929Z,81.27
2023-01-29T17:07:49.041Z,80.90
2023-01-29T17:10:06.105Z,80.96
2023-01-29T17:12:23.092Z,80.48
2023-01-29T17:14:40.432Z,80.83
2023-01-29T17:16:57.738Z,80.40
2023-01-29T17:19:14.845Z,80.63
2023-01-29T17:21:31.907Z,80.41
2023-01-29T17:23:49.142Z,80.24
2023-01-29T17:26:06.407Z,81.14
2023-01-29T17:28:23.656Z,81.50
2023-01-29T17:30:41.040Z,80.93
2023-01-29T17:32:58.042Z,80.82
2023-01-29T17:35:15.628Z,81.30
2023-01-29T17:37:33.285Z,80.81
2023-01-29T17:39:51.271Z,80.52
2023-01-29T17:42:08.214Z,80.93
2023-01-29T17:44:25.177Z,81.12
2023-01-29T17:46:42.286Z,82.29
2023-01-29T17:48:59.220Z,81.66
2023-01-29T17:51:16.456Z,81.58
2023-01-29T17:53:44.809Z,82.30
2023-01-29T17:56:03.175Z,81.45
2023-01-29T17:58:20.181Z,82.36
2023-01-29T18:00:38.163Z,82.35
2023-01-29T18:02:55.170Z,81.59
2023-01-29T18:05:12.437Z,81.73
2023-01-29T18:07:29.464Z,82.58
2023-01-29T18:09:46.803Z,82.17
2023-01-29T18:12:04.809Z,82.30
2023-01-29T18:14:21.923Z,82.35
2023-01-29T18:16:39.819Z,82.49
2023-01-29T18:18:58.168Z,82.58
2023-01-29T18:21:16.162Z,82.41
2023-01-29T18:23:33.263Z,82.52
2023-01-29T18:25:50.560Z,82.16
2023-01-29T18:28:08.539Z,82.96
2023-01-29T18:30:25.578Z,82.90
2023-01-29T18:32:42.692Z,82.81
2023-01-29T18:35:00.670Z,82.88
2023-01-29T18:37:17.678Z,82.88
2023-01-29T18:39:35.649Z,83.19
2023-01-29T18:41:53.618Z,83.19
2023-01-29T18:44:10.886Z,82.81
2023-01-29T18:46:28.307Z,83.00
2023-01-29T18:48:46.304Z,83.54
2023-01-29T18:51:03.608Z,83.07
2023-01-29T18:53:20.690Z,82.92
2023-01-29T18:55:38.914Z,82.90
2023-01-29T18:58:27.523Z,83.41
2023-01-29T19:00:32.970Z,83.45
2023-01-29T19:02:50.610Z,83.27
2023-01-29T19:05:07.685Z,82.85
2023-01-29T19:07:24.594Z,83.31
2023-01-29T19:09:41.761Z,83.09
2023-01-29T19:11:58.978Z,83.41
2023-01-29T19:14:16.201Z,83.46
2023-01-29T19:16:34.421Z,83.41
2023-01-29T19:18:51.479Z,83.87
2023-01-29T19:21:08.548Z,83.75
2023-01-29T19:23:25.853Z,84.16
2023-01-29T19:25:43.913Z,84.29
2023-01-29T19:28:00.910Z,84.28
2023-01-29T19:30:18.050Z,84.30
2023-01-29T19:32:35.152Z,83.85
2023-01-29T19:34:52.222Z,83.87
2023-01-29T19:37:09.509Z,84.06
2023-01-29T19:39:28.942Z,84.73
2023-01-29T19:41:46.617Z,84.13
2023-01-29T19:44:03.679Z,84.87
2023-01-29T19:46:20.778Z,85.52
2023-01-29T19:48:38.617Z,85.57
2023-01-29T19:50:55.903Z,86.41
2023-01-29T19:53:12.936Z,86.97
2023-01-29T19:55:29.888Z,86.53
2023-01-29T19:57:46.766Z,86.69
2023-01-29T20:00:04.053Z,86.87
2023-01-29T20:02:21.299Z,86.70
2023-01-29T20:04:38.346Z,86.92
2023-01-29T20:06:55.347Z,86.57
2023-01-29T20:09:12.422Z,86.61
2023-01-29T20:11:29.483Z,86.31
2023-01-29T20:13:46.569Z,86.35
2023-01-29T20:16:04.107Z,86.13
2023-01-29T20:18:21.394Z,85.78
2023-01-29T20:20:38.638Z,86.56
2023-01-29T20:22:55.683Z,86.50
2023-01-29T20:25:12.968Z,86.75
2023-01-29T20:27:30.217Z,86.14
2023-01-29T20:29:47.928Z,86.66
2023-01-29T20:32:05.018Z,86.74
2023-01-29T20:34:22.297Z,86.01
2023-01-29T20:36:39.305Z,86.66
2023-01-29T20:38:56.286Z,86.58
2023-01-29T20:41:13.683Z,86.12
2023-01-29T20:43:30.765Z,85.95
2023-01-29T20:45:47.928Z,86.21
2023-01-29T20:48:05.246Z,86.26
2023-01-29T20:50:22.561Z,86.52
2023-01-29T20:52:40.565Z,86.23
2023-01-29T20:54:57.766Z,85.99
2023-01-29T20:57:16.223Z,86.75
2023-01-29T20:59:33.314Z,85.94
2023-01-29T21:01:50.663Z,85.73
2023-01-29T21:04:07.981Z,86.15
2023-01-29T21:06:25.085Z,86.08
2023-01-29T21:08:42.361Z,86.14
2023-01-29T21:11:01.766Z,86.31
2023-01-29T21:13:18.751Z,85.60
2023-01-29T21:15:36.049Z,86.36
2023-01-29T21:17:53.422Z,86.29
2023-01-29T21:20:10.676Z,86.14
2023-01-29T21:22:28.760Z,86.15
2023-01-29T21:24:46.730Z,85.65
2023-01-29T21:27:03.778Z,85.77
2023-01-29T21:29:21.007Z,85.99
2023-01-29T21:31:40.652Z,85.40
2023-01-29T21:33:57.944Z,85.59
2023-01-29T21:36:15.229Z,86.45
2023-01-29T21:38:32.474Z,85.92
2023-01-29T21:40:49.439Z,86.66
2023-01-29T21:43:07.487Z,85.99
2023-01-29T21:45:24.844Z,86.37
2023-01-29T21:47:42.775Z,86.48
2023-01-29T21:49:59.812Z,86.14
2023-01-29T21:52:16.852Z,86.75
2023-01-29T21:54:35.196Z,86.65
2023-01-29T21:56:53.169Z,86.69
2023-01-29T21:59:10.146Z,86.89
2023-01-29T22:01:36.476Z,86.86
2023-01-29T22:03:55.174Z,87.07
2023-01-29T22:06:12.198Z,86.65
2023-01-29T22:08:29.072Z,87.02
2023-01-29T22:10:47.014Z,87.21
2023-01-29T22:13:04.259Z,86.58
2023-01-29T22:15:23.597Z,86.88
2023-01-29T22:17:41.211Z,87.03
2023-01-29T22:19:58.315Z,87.08
2023-01-29T22:22:16.321Z,86.94
2023-01-29T22:24:33.390Z,87.22
2023-01-29T22:26:50.540Z,87.26
2023-01-29T22:29:07.861Z,87.25
2023-01-29T22:31:24.942Z,86.79
2023-01-29T22:33:41.986Z,87.10
2023-01-29T22:35:58.915Z,87.40
2023-01-29T22:38:15.855Z,87.23
2023-01-29T22:40:34.106Z,87.78
2023-01-29T22:42:51.059Z,87.66
2023-01-29T22:45:08.137Z,87.56
2023-01-29T22:47:25.062Z,87.33
2023-01-29T22:49:43.338Z,87.50
2023-01-29T22:52:00.689Z,87.51
2023-01-29T22:54:18.403Z,87.63
2023-01-29T22:56:36.617Z,87.46
2023-01-29T22:58:53.729Z,87.93
2023-01-29T23:01:11.053Z,88.25
2023-01-29T23:03:28.084Z,87.73
2023-01-29T23:05:45.389Z,87.71
2023-01-29T23:08:02.977Z,87.22
2023-01-29T23:10:20.083Z,87.40
2023-01-29T23:12:37.154Z,87.66
2023-01-29T23:14:54.066Z,87.60
2023-01-29T23:17:12.318Z,87.59
2023-01-29T23:19:29.299Z,86.61
2023-01-29T23:21:46.601Z,86.35
2023-01-29T23:24:03.891Z,86.90
2023-01-29T23:26:22.064Z,86.62
2023-01-29T23:28:39.092Z,85.86
2023-01-29T23:30:56.473Z,86.71
2023-01-29T23:33:14.072Z,86.33
2023-01-29T23:35:31.173Z,86.65
2023-01-29T23:37:48.505Z,86.44
2023-01-29T23:40:05.757Z,86.45
2023-01-29T23:42:22.708Z,86.09
2023-01-29T23:44:40.121Z,86.54
2023-01-29T23:46:57.435Z,86.61
2023-01-29T23:49:14.693Z,86.71
2023-01-29T23:51:35.052Z,86.84
2023-01-29T23:53:52.309Z,86.82
2023-01-29T23:56:09.358Z,86.91
2023-01-29T23:58:26.391Z,86.68
